Time;durP1;ratioP1;P1;durP2;ratioP2;P2;SDS_P1;SDS_P2;PMS_P1;PMS_P2;Temp;Humidity;BMP_temperature;BMP_pressure;BME280_temperature;BME280_humidity;BME280_pressure;Samples;Min_cycle;Max_cycle;Signal;HPM_P1;HPM_P2
2024/03/02 00:00:13;;;;;;;19.65;13.15;;;8.00;99.90;;;;;;4938939;28;20117;-62
2024/03/02 00:02:45;;;;;;;20.33;13.32;;;8.00;99.90;;;;;;4961844;28;20126;-60
2024/03/02 00:05:12;;;;;;;22.08;12.82;;;8.00;99.90;;;;;;4919245;28;20487;-60
2024/03/02 00:07:41;;;;;;;21.23;13.60;;;8.00;99.90;;;;;;4918084;28;20030;-61
2024/03/02 00:10:12;;;;;;;18.98;13.00;;;8.00;99.90;;;;;;4925296;28;20030;-60
2024/03/02 00:12:39;;;;;;;20.25;12.98;;;8.00;99.90;;;;;;4900142;28;20030;-60
2024/03/02 00:15:24;;;;;;;19.83;12.18;;;8.00;99.90;;;;;;4923371;28;20109;-61
2024/03/02 00:17:53;;;;;;;19.52;12.90;;;8.00;99.90;;;;;;4960051;28;20033;-60
2024/03/02 00:20:22;;;;;;;16.80;11.80;;;8.00;99.90;;;;;;4918162;28;20594;-60
2024/03/02 00:22:48;;;;;;;18.60;12.20;;;8.00;99.90;;;;;;4895787;28;20034;-60
2024/03/02 00:25:13;;;;;;;22.08;13.68;;;8.00;99.90;;;;;;4917442;28;20096;-60
2024/03/02 00:27:39;;;;;;;18.02;12.98;;;8.00;99.90;;;;;;4906136;28;20565;-60
2024/03/02 00:30:35;;;;;;;20.83;12.88;;;8.00;99.90;;;;;;4928053;28;20150;-61
2024/03/02 00:33:00;;;;;;;22.70;13.60;;;8.00;99.90;;;;;;4945768;28;20092;-61
2024/03/02 00:35:26;;;;;;;19.67;13.13;;;7.90;99.90;;;;;;4898356;28;20440;-61
2024/03/02 00:37:51;;;;;;;21.27;13.63;;;7.90;99.90;;;;;;4914228;28;20038;-60
2024/03/02 00:40:19;;;;;;;20.67;12.63;;;7.90;99.90;;;;;;4926425;28;20260;-61
2024/03/02 00:42:44;;;;;;;20.88;12.55;;;8.00;99.90;;;;;;4891998;28;20076;-61
2024/03/02 00:45:10;;;;;;;19.15;12.60;;;7.90;99.90;;;;;;4906654;28;20039;-61
2024/03/02 00:47:42;;;;;;;24.83;14.00;;;7.90;99.90;;;;;;4933065;28;20497;-61
2024/03/02 00:50:08;;;;;;;23.60;13.68;;;7.90;99.90;;;;;;4911508;28;20037;-59
2024/03/02 00:52:34;;;;;;;25.83;13.68;;;7.90;99.90;;;;;;4911505;28;20019;-61
2024/03/02 00:55:00;;;;;;;24.70;15.52;;;7.90;99.90;;;;;;4886855;28;20081;-61
2024/03/02 00:57:26;;;;;;;24.70;14.57;;;7.90;99.90;;;;;;4886229;28;21565;-60
2024/03/02 00:59:52;;;;;;;24.27;13.65;;;7.90;99.90;;;;;;4940113;28;20030;-61
2024/03/02 01:02:19;;;;;;;26.30;15.50;;;7.90;99.90;;;;;;4907656;28;20513;-61
2024/03/02 01:04:45;;;;;;;25.45;14.50;;;7.90;99.90;;;;;;4886809;28;20110;-61
2024/03/02 01:07:11;;;;;;;22.83;14.20;;;7.90;99.90;;;;;;4914240;28;20042;-61
2024/03/02 01:09:36;;;;;;;26.08;16.58;;;7.90;99.90;;;;;;4885802;28;20037;-61
2024/03/02 01:12:02;;;;;;;24.65;16.48;;;7.90;99.90;;;;;;4929480;28;20137;-63
2024/03/02 01:14:28;;;;;;;30.10;16.13;;;7.80;99.90;;;;;;4887810;28;20034;-62
2024/03/02 01:16:53;;;;;;;27.15;15.63;;;7.80;99.90;;;;;;4903534;28;20388;-62
2024/03/02 01:19:19;;;;;;;26.65;16.27;;;7.80;99.90;;;;;;4922648;28;20042;-61
2024/03/02 01:21:44;;;;;;;24.02;14.63;;;7.80;99.90;;;;;;4880007;28;20033;-60
2024/03/02 01:24:10;;;;;;;25.48;16.33;;;7.70;99.90;;;;;;4888321;28;20038;-61
2024/03/02 01:26:36;;;;;;;28.17;16.67;;;7.70;99.90;;;;;;4958631;28;20474;-60
2024/03/02 01:29:01;;;;;;;24.45;14.95;;;7.70;99.90;;;;;;4901529;28;20043;-61
2024/03/02 01:31:27;;;;;;;28.38;15.82;;;7.70;99.90;;;;;;4901092;28;20090;-61
2024/03/02 01:33:52;;;;;;;25.50;15.40;;;7.70;99.90;;;;;;4896633;28;20030;-61
2024/03/02 01:36:18;;;;;;;25.98;16.42;;;7.70;99.90;;;;;;4874395;28;20040;-61
2024/03/02 01:38:43;;;;;;;26.13;16.40;;;7.70;99.90;;;;;;4924437;28;22345;-60
2024/03/02 01:41:09;;;;;;;27.95;16.90;;;7.60;99.90;;;;;;4898691;28;20034;-60
2024/03/02 01:43:35;;;;;;;31.02;17.02;;;7.60;99.90;;;;;;4896989;28;20023;-58
2024/03/02 01:46:01;;;;;;;24.92;15.73;;;7.60;99.90;;;;;;4874148;28;20034;-60
2024/03/02 01:48:26;;;;;;;27.15;16.33;;;7.60;99.90;;;;;;4864485;28;21075;-60
2024/03/02 01:50:52;;;;;;;23.63;16.00;;;7.60;99.90;;;;;;4926423;28;20469;-61
2024/03/02 01:53:17;;;;;;;28.45;16.98;;;7.60;99.90;;;;;;4893692;28;20109;-61
2024/03/02 01:55:43;;;;;;;26.48;15.77;;;7.60;99.90;;;;;;4894543;28;20380;-62
2024/03/02 01:58:09;;;;;;;26.20;16.55;;;7.60;99.90;;;;;;4937650;28;20447;-61
2024/03/02 02:00:34;;;;;;;24.42;16.13;;;7.60;99.90;;;;;;4867539;28;20612;-61
2024/03/02 02:03:00;;;;;;;23.63;15.02;;;7.50;99.90;;;;;;4932779;28;20041;-61
2024/03/02 02:05:25;;;;;;;28.75;16.85;;;7.50;99.90;;;;;;4877045;28;20027;-62
2024/03/02 02:07:51;;;;;;;27.15;17.67;;;7.50;99.90;;;;;;4870377;28;20080;-61
2024/03/02 02:10:17;;;;;;;27.90;17.25;;;7.50;99.90;;;;;;4920139;28;20129;-61
2024/03/02 02:12:42;;;;;;;26.80;16.42;;;7.50;99.90;;;;;;4870692;28;20418;-61
2024/03/02 02:15:24;;;;;;;28.45;17.30;;;7.50;99.90;;;;;;4886384;28;20050;-61
2024/03/02 02:17:50;;;;;;;32.30;18.25;;;7.50;99.90;;;;;;4923708;28;20034;-62
2024/03/02 02:20:15;;;;;;;25.50;16.88;;;7.50;99.90;;;;;;4882988;28;20034;-61
2024/03/02 02:22:59;;;;;;;31.67;18.33;;;7.50;99.90;;;;;;4859033;28;20061;-61
2024/03/02 02:25:25;;;;;;;30.23;18.38;;;7.50;99.90;;;;;;4879363;28;20034;-61
2024/03/02 02:27:50;;;;;;;31.48;19.23;;;7.50;99.90;;;;;;4869873;28;20034;-61
2024/03/02 02:30:20;;;;;;;32.03;17.65;;;7.50;99.90;;;;;;4852792;28;20084;-61
2024/03/02 02:32:46;;;;;;;30.75;18.65;;;7.50;99.90;;;;;;4939589;28;20042;-61
2024/03/02 02:35:12;;;;;;;30.50;18.65;;;7.40;99.90;;;;;;4882499;28;20483;-61
2024/03/02 02:37:38;;;;;;;29.60;18.17;;;7.40;99.90;;;;;;4919030;28;20105;-61
2024/03/02 02:40:04;;;;;;;26.67;16.17;;;7.40;99.90;;;;;;4862231;28;20034;-61
2024/03/02 02:42:30;;;;;;;27.88;17.95;;;7.50;99.90;;;;;;4850416;28;21531;-61
2024/03/02 02:44:56;;;;;;;30.08;18.02;;;7.40;99.90;;;;;;4906756;28;20058;-61
2024/03/02 02:47:21;;;;;;;31.67;19.17;;;7.40;99.90;;;;;;4880784;28;20046;-60
2024/03/02 02:49:47;;;;;;;30.45;18.27;;;7.40;99.90;;;;;;4835679;28;20034;-61
2024/03/02 02:52:12;;;;;;;30.55;19.98;;;7.40;99.90;;;;;;4891053;28;20069;-61
2024/03/02 02:54:38;;;;;;;29.63;17.67;;;7.40;99.90;;;;;;4854530;28;20023;-61
2024/03/02 02:57:04;;;;;;;27.08;17.65;;;7.40;99.90;;;;;;4909809;28;20029;-62
2024/03/02 02:59:29;;;;;;;32.72;17.70;;;7.40;99.90;;;;;;4863827;28;20442;-61
2024/03/02 03:01:55;;;;;;;26.58;17.40;;;7.40;99.90;;;;;;4877753;28;20039;-61
2024/03/02 03:04:20;;;;;;;30.27;18.17;;;7.40;99.90;;;;;;4907401;28;20059;-60
2024/03/02 03:06:46;;;;;;;31.40;19.13;;;7.40;99.90;;;;;;4858244;28;20608;-61
2024/03/02 03:09:12;;;;;;;33.92;19.80;;;7.40;99.90;;;;;;4876894;28;20030;-61
2024/03/02 03:11:37;;;;;;;32.15;18.73;;;7.30;99.90;;;;;;4895880;28;20026;-61
2024/03/02 03:14:06;;;;;;;31.08;18.48;;;7.30;99.90;;;;;;4875479;28;21307;-60
2024/03/02 03:16:31;;;;;;;31.17;17.65;;;7.30;99.90;;;;;;4866170;28;20465;-61
2024/03/02 03:18:57;;;;;;;30.23;17.38;;;7.30;99.90;;;;;;4845843;28;20035;-61
2024/03/02 03:21:23;;;;;;;30.27;18.05;;;7.30;99.90;;;;;;4821053;28;22670;-61
2024/03/02 03:23:48;;;;;;;31.63;19.92;;;7.30;99.90;;;;;;4900465;28;21331;-60
2024/03/02 03:26:14;;;;;;;31.10;18.67;;;7.30;99.90;;;;;;4969327;23;20045;-52
2024/03/02 03:28:40;;;;;;;27.10;17.05;;;7.30;99.90;;;;;;4949546;28;20024;-60
2024/03/02 03:31:06;;;;;;;31.70;18.23;;;7.30;99.90;;;;;;4936735;28;20104;-52
2024/03/02 03:33:31;;;;;;;27.08;17.70;;;7.30;99.90;;;;;;4937076;28;20036;-57
2024/03/02 03:35:57;;;;;;;29.60;19.55;;;7.30;99.90;;;;;;4909866;28;20104;-52
2024/03/02 03:38:22;;;;;;;27.63;17.17;;;7.30;99.90;;;;;;4946901;28;20034;-54
2024/03/02 03:40:48;;;;;;;30.98;18.67;;;7.30;99.90;;;;;;4919937;28;20034;-61
2024/03/02 03:43:13;;;;;;;29.75;17.73;;;7.30;99.90;;;;;;4957996;28;20042;-52
2024/03/02 03:45:39;;;;;;;28.45;16.85;;;7.30;99.90;;;;;;4912847;28;20053;-53
2024/03/02 03:48:05;;;;;;;28.77;16.63;;;7.30;99.90;;;;;;4939355;28;20030;-55
2024/03/02 03:50:30;;;;;;;29.48;18.80;;;7.30;99.90;;;;;;4918946;28;20104;-54
2024/03/02 03:52:56;;;;;;;26.38;17.92;;;7.30;99.90;;;;;;4941249;28;20114;-48
2024/03/02 03:55:21;;;;;;;32.88;18.95;;;7.30;99.90;;;;;;4967000;28;22005;-53
2024/03/02 03:57:47;;;;;;;30.10;18.65;;;7.30;99.90;;;;;;4943071;28;20032;-50
2024/03/02 04:00:13;;;;;;;26.65;18.45;;;7.30;99.90;;;;;;4922063;28;20037;-52
2024/03/02 04:02:39;;;;;;;29.02;17.85;;;7.30;99.90;;;;;;4920638;28;20034;-54
2024/03/02 04:05:08;;;;;;;29.10;17.88;;;7.30;99.90;;;;;;4938761;28;21026;-49
2024/03/02 04:07:40;;;;;;;30.02;17.80;;;7.30;99.90;;;;;;4977676;28;20026;-50
2024/03/02 04:10:10;;;;;;;29.02;18.05;;;7.30;99.90;;;;;;4950177;28;20026;-60
2024/03/02 04:12:39;;;;;;;30.90;18.17;;;7.30;99.90;;;;;;4920821;28;20018;-51
2024/03/02 04:15:06;;;;;;;28.42;18.33;;;7.20;99.90;;;;;;4877608;28;20030;-48
2024/03/02 04:17:33;;;;;;;28.85;18.20;;;7.20;99.90;;;;;;4903850;28;20026;-56
2024/03/02 04:19:59;;;;;;;27.77;18.17;;;7.20;99.90;;;;;;4936285;28;21280;-51
2024/03/02 04:22:26;;;;;;;27.27;17.58;;;7.20;99.90;;;;;;4942234;28;20981;-52
2024/03/02 04:24:52;;;;;;;27.83;17.58;;;7.20;99.90;;;;;;4934677;28;20030;-49
2024/03/02 04:27:17;;;;;;;27.48;17.30;;;7.20;99.90;;;;;;4929268;28;20057;-51
2024/03/02 04:29:43;;;;;;;24.80;16.38;;;7.20;99.90;;;;;;4924484;28;21113;-50
2024/03/02 04:32:08;;;;;;;28.45;17.85;;;7.20;99.90;;;;;;4933216;28;22003;-52
2024/03/02 04:34:34;;;;;;;28.38;17.35;;;7.20;99.90;;;;;;4981191;28;20429;-52
2024/03/02 04:36:59;;;;;;;30.77;17.58;;;7.20;99.90;;;;;;4874783;28;20030;-49
2024/03/02 04:39:25;;;;;;;29.88;17.65;;;7.20;99.90;;;;;;4926418;28;20097;-58
2024/03/02 04:41:51;;;;;;;27.95;17.15;;;7.20;99.90;;;;;;4903869;28;20920;-48
2024/03/02 04:44:16;;;;;;;26.13;15.68;;;7.10;99.90;;;;;;4930545;28;20093;-48
2024/03/02 04:46:42;;;;;;;28.08;17.10;;;7.10;99.90;;;;;;4921030;28;20040;-59
2024/03/02 04:49:07;;;;;;;30.15;17.25;;;7.10;99.90;;;;;;4928745;28;20041;-58
2024/03/02 04:51:34;;;;;;;24.48;16.52;;;7.10;99.90;;;;;;4902677;28;20509;-49
2024/03/02 04:53:59;;;;;;;25.48;16.15;;;7.10;99.90;;;;;;4920456;28;20110;-49
2024/03/02 04:56:43;;;;;;;26.38;16.10;;;7.00;99.90;;;;;;4924913;28;20048;-60
2024/03/02 04:59:08;;;;;;;27.95;17.83;;;7.00;99.90;;;;;;4927358;28;22273;-50
2024/03/02 05:01:34;;;;;;;26.42;16.92;;;7.00;99.90;;;;;;4957965;28;20022;-52
2024/03/02 05:04:00;;;;;;;24.02;15.75;;;7.00;99.90;;;;;;4906632;28;20519;-51
2024/03/02 05:06:25;;;;;;;25.67;15.77;;;7.00;99.90;;;;;;4876354;28;20060;-48
2024/03/02 05:08:51;;;;;;;27.63;16.63;;;7.00;99.90;;;;;;4916162;28;20052;-49
2024/03/02 05:11:38;;;;;;;21.73;15.88;;;7.00;99.90;;;;;;4927551;28;20026;-49
2024/03/02 05:14:07;;;;;;;24.63;16.60;;;7.00;99.90;;;;;;4924774;28;21489;-54
2024/03/02 05:16:34;;;;;;;25.25;15.98;;;7.00;99.90;;;;;;4971484;28;20026;-49
2024/03/02 05:19:00;;;;;;;24.77;15.52;;;7.00;99.90;;;;;;4917659;28;20398;-48
2024/03/02 05:21:25;;;;;;;25.38;15.57;;;7.00;99.90;;;;;;4878279;28;20095;-56
2024/03/02 05:23:51;;;;;;;22.80;15.30;;;7.00;99.90;;;;;;4895137;28;21286;-49
2024/03/02 05:26:16;;;;;;;28.98;18.40;;;7.00;99.90;;;;;;4924738;28;20034;-50
2024/03/02 05:28:42;;;;;;;23.25;16.13;;;6.90;99.90;;;;;;4934889;28;20029;-59
2024/03/02 05:31:14;;;;;;;27.95;17.20;;;6.90;99.90;;;;;;4919507;28;20041;-60
2024/03/02 05:33:43;;;;;;;22.98;15.05;;;6.90;99.90;;;;;;4918137;28;20061;-48
2024/03/02 05:36:08;;;;;;;27.33;16.90;;;6.90;99.90;;;;;;4900702;28;20029;-53
2024/03/02 05:38:37;;;;;;;24.40;17.38;;;6.90;99.90;;;;;;4878535;28;20575;-48
2024/03/02 05:41:03;;;;;;;30.00;17.77;;;6.90;99.90;;;;;;4918268;28;21175;-53
2024/03/02 05:43:29;;;;;;;26.75;15.88;;;6.90;99.90;;;;;;4943911;28;20859;-56
2024/03/02 05:45:54;;;;;;;29.08;16.27;;;6.90;99.90;;;;;;4908283;28;20022;-54
2024/03/02 05:48:20;;;;;;;28.15;16.90;;;6.90;99.90;;;;;;4853889;28;20118;-50
2024/03/02 05:50:45;;;;;;;25.30;15.80;;;6.90;99.90;;;;;;4905020;28;21505;-52
2024/03/02 05:53:11;;;;;;;27.45;17.35;;;6.90;99.90;;;;;;4914695;28;20792;-51
2024/03/02 05:55:37;;;;;;;23.52;16.90;;;6.90;99.90;;;;;;4974535;28;20057;-54
2024/03/02 06:00:46;;;;;;;26.20;15.93;;;6.90;99.90;;;;;;4886192;28;20099;-51
2024/03/02 06:03:12;;;;;;;25.92;16.00;;;6.90;99.90;;;;;;4896483;28;20037;-54
2024/03/02 06:05:37;;;;;;;24.40;16.08;;;6.90;99.90;;;;;;4868749;28;20108;-52
2024/03/02 06:08:03;;;;;;;26.70;16.77;;;6.90;99.90;;;;;;4911489;28;21470;-56
2024/03/02 06:10:29;;;;;;;25.70;15.73;;;6.90;99.90;;;;;;4959408;28;21988;-53
2024/03/02 06:12:54;;;;;;;28.55;16.30;;;6.90;99.90;;;;;;4883044;28;20025;-53
2024/03/02 06:15:20;;;;;;;24.98;15.80;;;6.90;99.90;;;;;;4864119;28;20061;-53
2024/03/02 06:17:45;;;;;;;23.05;14.93;;;6.90;99.90;;;;;;4899743;28;20862;-54
2024/03/02 06:20:11;;;;;;;28.85;17.05;;;6.90;99.90;;;;;;4908557;28;21187;-52
2024/03/02 06:22:37;;;;;;;26.52;15.57;;;6.80;99.90;;;;;;4933007;28;20054;-54
2024/03/02 06:25:03;;;;;;;26.10;16.40;;;6.80;99.90;;;;;;4920267;28;20199;-59
2024/03/02 06:27:28;;;;;;;22.83;15.23;;;6.90;99.90;;;;;;4896769;28;20026;-54
2024/03/02 06:29:54;;;;;;;23.02;14.85;;;6.80;99.90;;;;;;4962284;28;20030;-55
2024/03/02 06:32:20;;;;;;;25.92;15.45;;;6.80;99.90;;;;;;4972879;28;20029;-54
2024/03/02 06:34:45;;;;;;;23.25;14.45;;;6.90;99.90;;;;;;4949470;28;20795;-54
2024/03/02 06:37:11;;;;;;;23.33;14.65;;;6.80;99.90;;;;;;4931881;28;20034;-54
2024/03/02 06:39:37;;;;;;;20.73;14.63;;;6.90;99.90;;;;;;4977121;28;20563;-54
2024/03/02 06:42:02;;;;;;;24.27;15.02;;;6.80;99.90;;;;;;4939619;28;20029;-52
2024/03/02 06:44:28;;;;;;;24.95;15.50;;;6.90;99.90;;;;;;4954885;28;20052;-57
2024/03/02 06:46:54;;;;;;;26.63;16.13;;;6.90;99.90;;;;;;4963748;28;20053;-53
2024/03/02 06:49:19;;;;;;;25.75;16.08;;;6.90;99.90;;;;;;4932909;28;20787;-49
2024/03/02 06:51:45;;;;;;;29.33;16.35;;;6.90;99.90;;;;;;4965799;28;20056;-52
2024/03/02 06:54:10;;;;;;;29.85;16.15;;;6.90;99.90;;;;;;4895226;28;20033;-55
2024/03/02 06:56:37;;;;;;;25.58;14.82;;;6.90;99.90;;;;;;4929421;28;20019;-55
2024/03/02 06:59:02;;;;;;;24.63;16.00;;;6.90;99.90;;;;;;4958472;28;20018;-54
2024/03/02 07:01:28;;;;;;;29.42;15.77;;;6.90;99.90;;;;;;4898157;28;21753;-53
2024/03/02 07:03:54;;;;;;;25.17;15.65;;;7.00;99.90;;;;;;4942535;28;20737;-53
2024/03/02 07:06:19;;;;;;;24.40;15.90;;;7.00;99.90;;;;;;4941636;28;20242;-50
2024/03/02 07:08:45;;;;;;;25.63;15.73;;;7.00;99.90;;;;;;4926104;28;20773;-51
2024/03/02 07:11:10;;;;;;;25.83;16.17;;;7.00;99.90;;;;;;4966547;28;20030;-51
2024/03/02 07:13:36;;;;;;;28.42;16.15;;;7.00;99.90;;;;;;4933108;28;20038;-54
2024/03/02 07:18:28;;;;;;;25.70;15.90;;;7.00;99.90;;;;;;4930588;28;20087;-52
2024/03/02 07:20:53;;;;;;;26.02;16.17;;;7.10;99.90;;;;;;4915580;28;21488;-50
2024/03/02 07:23:20;;;;;;;23.02;15.38;;;7.10;99.90;;;;;;4982353;28;20498;-53
2024/03/02 07:25:46;;;;;;;21.02;15.05;;;7.10;99.90;;;;;;4909818;28;20087;-54
2024/03/02 07:28:11;;;;;;;25.02;15.75;;;7.20;99.90;;;;;;4934734;28;20041;-58
2024/03/02 07:30:38;;;;;;;21.77;15.10;;;7.20;99.90;;;;;;4903378;28;20690;-50
2024/03/02 07:33:04;;;;;;;23.45;15.27;;;7.20;99.90;;;;;;4914028;28;20088;-53
2024/03/02 07:35:31;;;;;;;23.92;15.02;;;7.20;99.90;;;;;;4952246;28;20037;-61
2024/03/02 07:37:57;;;;;;;24.35;15.85;;;7.20;99.90;;;;;;4931897;28;20021;-52
2024/03/02 07:40:23;;;;;;;25.00;15.88;;;7.30;99.90;;;;;;4927114;28;21688;-52
2024/03/02 07:42:48;;;;;;;24.60;15.77;;;7.30;99.90;;;;;;4942564;28;20660;-51
2024/03/02 07:45:14;;;;;;;24.73;15.45;;;7.40;99.90;;;;;;4924553;28;20123;-49
2024/03/02 07:47:40;;;;;;;24.40;15.50;;;7.40;99.90;;;;;;4946657;28;20507;-59
2024/03/02 07:50:06;;;;;;;25.13;15.10;;;7.40;99.90;;;;;;4960422;28;20038;-48
2024/03/02 07:52:33;;;;;;;23.30;15.32;;;7.50;99.90;;;;;;4901019;28;20607;-52
2024/03/02 07:54:58;;;;;;;23.42;14.85;;;7.50;99.90;;;;;;4971042;28;20025;-49
2024/03/02 07:57:24;;;;;;;26.42;16.88;;;7.50;99.90;;;;;;4926369;28;20025;-60
2024/03/02 07:59:50;;;;;;;24.33;16.25;;;7.60;99.90;;;;;;4937695;28;20030;-53
2024/03/02 08:02:16;;;;;;;21.88;14.50;;;7.60;99.90;;;;;;4944823;28;20029;-49
2024/03/02 08:04:42;;;;;;;23.52;15.20;;;7.70;99.90;;;;;;4929311;28;20048;-49
2024/03/02 08:07:09;;;;;;;22.58;15.25;;;7.70;99.90;;;;;;4933657;28;20025;-60
2024/03/02 08:09:34;;;;;;;22.52;14.07;;;7.80;99.90;;;;;;4958548;28;20052;-49
2024/03/02 08:12:00;;;;;;;21.52;14.95;;;7.80;99.90;;;;;;4943825;28;22441;-49
2024/03/02 08:14:25;;;;;;;23.50;15.35;;;7.80;99.90;;;;;;4942418;28;20450;-55
2024/03/02 08:16:51;;;;;;;22.23;14.63;;;7.80;99.90;;;;;;4926888;28;20490;-52
2024/03/02 08:19:17;;;;;;;24.42;14.82;;;7.90;99.90;;;;;;4935871;28;20022;-51
2024/03/02 08:21:43;;;;;;;23.00;14.65;;;7.90;99.90;;;;;;4965782;28;20030;-53
2024/03/02 08:24:09;;;;;;;23.13;13.93;;;7.90;99.90;;;;;;4963898;28;20647;-52
2024/03/02 08:26:35;;;;;;;22.50;15.15;;;7.90;99.90;;;;;;4947265;28;20026;-54
2024/03/02 08:29:01;;;;;;;22.80;14.52;;;7.90;99.90;;;;;;4932388;28;20028;-56
2024/03/02 08:31:27;;;;;;;25.13;15.07;;;7.90;99.90;;;;;;4922114;28;21440;-51
2024/03/02 08:33:53;;;;;;;22.15;14.80;;;8.00;99.90;;;;;;4964827;28;20034;-53
2024/03/02 08:36:19;;;;;;;21.13;15.23;;;8.00;99.90;;;;;;4938733;28;20026;-54
2024/03/02 08:38:45;;;;;;;19.02;13.68;;;8.00;99.90;;;;;;4916369;28;20036;-49
2024/03/02 08:41:13;;;;;;;21.88;14.35;;;8.10;99.90;;;;;;4939254;28;20045;-55
2024/03/02 08:43:41;;;;;;;22.10;14.90;;;8.10;99.90;;;;;;4915334;28;20026;-51
2024/03/02 08:46:06;;;;;;;21.73;14.00;;;8.10;99.90;;;;;;4937504;28;20426;-59
2024/03/02 08:48:32;;;;;;;21.70;13.85;;;8.20;99.90;;;;;;4945264;28;20088;-56
2024/03/02 08:50:58;;;;;;;20.65;14.02;;;8.20;99.90;;;;;;4936511;28;21915;-54
2024/03/02 08:53:24;;;;;;;20.98;14.25;;;8.30;99.90;;;;;;4939739;28;20059;-55
2024/03/02 08:55:50;;;;;;;22.67;14.82;;;8.30;99.90;;;;;;4914668;28;20106;-51
2024/03/02 08:58:15;;;;;;;21.15;13.90;;;8.40;99.90;;;;;;4921922;28;20516;-52
2024/03/02 09:00:41;;;;;;;23.50;14.68;;;8.50;99.90;;;;;;4970603;28;20026;-51
2024/03/02 09:03:07;;;;;;;21.13;13.57;;;8.60;99.90;;;;;;4941817;28;20041;-53
2024/03/02 09:05:33;;;;;;;24.60;15.25;;;8.60;99.90;;;;;;4939693;28;20045;-51
2024/03/02 09:07:58;;;;;;;20.08;13.30;;;8.70;99.90;;;;;;4919961;28;20145;-53
2024/03/02 09:10:24;;;;;;;19.00;13.68;;;8.80;99.90;;;;;;4918755;28;20808;-53
2024/03/02 09:12:50;;;;;;;22.25;15.07;;;8.90;99.90;;;;;;4959803;28;20112;-54
2024/03/02 09:15:16;;;;;;;18.63;12.77;;;9.10;99.90;;;;;;4933779;28;20030;-51
2024/03/02 09:17:41;;;;;;;19.70;13.23;;;9.10;99.90;;;;;;4926321;28;20041;-58
2024/03/02 09:20:07;;;;;;;23.27;14.35;;;9.10;99.90;;;;;;4937053;28;20400;-53
2024/03/02 09:22:33;;;;;;;20.55;13.15;;;9.30;99.90;;;;;;4911486;28;20041;-51
2024/03/02 09:24:59;;;;;;;20.45;15.07;;;9.40;99.90;;;;;;4973622;28;20052;-59
2024/03/02 09:27:25;;;;;;;24.35;14.30;;;9.50;99.90;;;;;;4934172;28;20037;-57
2024/03/02 09:29:50;;;;;;;22.75;14.50;;;9.70;99.90;;;;;;4914883;28;20029;-54
2024/03/02 09:32:16;;;;;;;21.25;13.35;;;9.70;99.90;;;;;;4933589;28;20410;-49
2024/03/02 09:34:42;;;;;;;19.27;13.10;;;9.80;99.90;;;;;;4909471;28;20637;-57
2024/03/02 09:37:07;;;;;;;19.80;12.63;;;9.90;99.90;;;;;;4976302;23;20050;-62
2024/03/02 09:39:33;;;;;;;19.77;13.23;;;9.90;99.90;;;;;;4954300;28;20161;-61
2024/03/02 09:42:04;;;;;;;19.23;13.35;;;10.00;99.90;;;;;;4926379;28;21513;-61
2024/03/02 09:44:29;;;;;;;18.15;12.88;;;10.00;99.90;;;;;;4927037;28;20029;-62
2024/03/02 09:46:55;;;;;;;17.60;12.60;;;10.10;99.90;;;;;;4904374;28;20037;-61
2024/03/02 09:49:21;;;;;;;19.35;11.98;;;10.10;99.90;;;;;;4889700;28;20030;-61
2024/03/02 09:51:51;;;;;;;17.65;12.05;;;10.20;99.90;;;;;;4943190;28;21435;-61
2024/03/02 09:54:17;;;;;;;19.33;12.93;;;10.30;99.90;;;;;;4920040;28;20105;-63
2024/03/02 09:56:44;;;;;;;20.63;12.35;;;10.50;99.90;;;;;;4895888;28;20032;-61
2024/03/02 09:59:10;;;;;;;16.90;11.50;;;10.50;99.90;;;;;;4942637;28;20022;-61
2024/03/02 10:01:35;;;;;;;21.00;12.95;;;10.60;99.90;;;;;;4894977;28;20037;-61
2024/03/02 10:04:04;;;;;;;21.73;13.45;;;10.70;99.90;;;;;;4942796;28;20030;-62
2024/03/02 10:06:30;;;;;;;20.20;12.02;;;10.80;99.90;;;;;;4912173;28;20492;-60
2024/03/02 10:08:56;;;;;;;18.42;11.27;;;10.90;99.90;;;;;;4918211;28;20030;-61
2024/03/02 10:11:32;;;;;;;15.65;11.35;;;11.00;99.90;;;;;;4938874;28;20069;-62
2024/03/02 10:14:07;;;;;;;19.23;12.25;;;11.10;99.90;;;;;;4882628;28;20026;-61
2024/03/02 10:16:36;;;;;;;17.08;11.85;;;11.30;99.90;;;;;;4894445;28;21850;-61
2024/03/02 10:19:17;;;;;;;20.20;11.88;;;11.30;99.90;;;;;;4936814;28;20113;-61
2024/03/02 10:21:44;;;;;;;17.63;11.25;;;11.50;99.90;;;;;;4948832;28;20647;-63
2024/03/02 10:24:10;;;;;;;14.45;10.65;;;11.50;99.90;;;;;;4910163;28;20025;-61
2024/03/02 10:26:36;;;;;;;15.05;11.13;;;11.60;99.90;;;;;;4914917;28;20037;-61
2024/03/02 10:29:02;;;;;;;14.38;10.02;;;11.70;99.90;;;;;;4875762;28;20018;-61
2024/03/02 10:31:28;;;;;;;16.40;9.73;;;11.70;99.90;;;;;;4866060;28;21559;-60
2024/03/02 10:34:00;;;;;;;15.60;10.45;;;11.80;99.90;;;;;;4955826;28;20041;-59
2024/03/02 10:36:26;;;;;;;16.65;10.18;;;11.80;99.90;;;;;;4896926;28;20029;-61
2024/03/02 10:38:55;;;;;;;13.27;10.07;;;11.90;99.90;;;;;;4929810;28;20030;-60
2024/03/02 10:41:23;;;;;;;14.40;9.70;;;11.90;99.90;;;;;;4908181;28;20490;-60
2024/03/02 10:43:52;;;;;;;16.55;10.00;;;11.90;99.90;;;;;;4877782;28;20026;-61
2024/03/02 10:46:20;;;;;;;12.93;8.68;;;12.00;99.90;;;;;;4896001;28;20203;-62
2024/03/02 10:48:46;;;;;;;16.45;11.32;;;12.10;99.90;;;;;;4935816;28;21646;-62
2024/03/02 10:51:12;;;;;;;13.98;9.35;;;12.00;99.90;;;;;;4901126;28;20060;-61
2024/03/02 10:53:38;;;;;;;13.75;8.90;;;12.00;99.90;;;;;;4917694;28;20625;-63
2024/03/02 10:56:07;;;;;;;12.82;8.65;;;12.10;99.90;;;;;;4896144;28;20025;-62
2024/03/02 10:58:33;;;;;;;12.55;8.45;;;12.00;99.90;;;;;;4874357;28;20157;-62
2024/03/02 11:01:03;;;;;;;14.38;8.52;;;12.00;99.90;;;;;;4927300;28;20022;-62
2024/03/02 11:03:35;;;;;;;13.93;10.43;;;12.00;99.90;;;;;;4894724;28;20109;-62
2024/03/02 11:06:06;;;;;;;12.70;9.23;;;12.00;99.90;;;;;;4900357;28;21368;-61
2024/03/02 11:08:34;;;;;;;12.35;8.18;;;12.00;99.90;;;;;;4925580;28;20027;-61
2024/03/02 11:11:07;;;;;;;11.85;8.63;;;12.00;99.90;;;;;;4873307;28;20390;-61
2024/03/02 11:13:33;;;;;;;11.38;8.88;;;12.10;99.90;;;;;;4870798;28;21624;-61
2024/03/02 11:16:06;;;;;;;12.75;9.20;;;12.10;99.90;;;;;;4927720;28;20026;-53
2024/03/02 11:18:33;;;;;;;14.57;9.63;;;12.10;99.90;;;;;;4924720;28;20101;-55
2024/03/02 11:20:59;;;;;;;10.40;8.02;;;12.10;99.90;;;;;;4898916;28;21706;-54
2024/03/02 11:23:35;;;;;;;12.02;8.65;;;12.20;99.90;;;;;;4936854;28;20038;-58
2024/03/02 11:26:19;;;;;;;13.80;9.07;;;12.20;99.90;;;;;;4870707;28;20113;-58
2024/03/02 11:28:45;;;;;;;11.05;7.50;;;12.20;99.90;;;;;;4871217;28;20041;-55
2024/03/02 11:31:11;;;;;;;12.13;7.88;;;12.20;99.90;;;;;;4902541;28;20041;-60
2024/03/02 11:33:37;;;;;;;13.25;8.32;;;12.20;99.90;;;;;;4926167;28;20041;-58
2024/03/02 11:36:06;;;;;;;11.40;8.10;;;12.20;99.90;;;;;;4895233;28;21040;-57
2024/03/02 11:38:33;;;;;;;13.13;8.07;;;12.20;99.90;;;;;;4950823;28;20049;-57
2024/03/02 11:41:01;;;;;;;12.13;8.43;;;12.20;99.90;;;;;;4886249;28;20504;-57
2024/03/02 11:43:29;;;;;;;13.32;7.50;;;12.20;99.90;;;;;;4856800;28;21604;-57
2024/03/02 11:46:04;;;;;;;10.75;7.47;;;12.20;99.90;;;;;;4928330;28;20034;-58
2024/03/02 11:48:30;;;;;;;12.13;7.80;;;12.20;99.90;;;;;;4873915;28;20076;-60
2024/03/02 11:50:59;;;;;;;10.23;7.75;;;12.30;99.90;;;;;;4955511;28;20042;-58
2024/03/02 11:53:28;;;;;;;11.23;7.85;;;12.30;99.90;;;;;;4963616;28;20034;-56
2024/03/02 11:55:55;;;;;;;11.43;7.28;;;12.40;99.90;;;;;;4932671;28;20029;-59
2024/03/02 11:58:23;;;;;;;10.82;8.13;;;12.40;99.90;;;;;;4918948;28;20030;-52
2024/03/02 12:00:55;;;;;;;11.70;7.30;;;12.40;99.90;;;;;;4934436;28;20029;-57
2024/03/02 12:03:25;;;;;;;11.68;7.85;;;12.40;99.90;;;;;;4946471;28;20031;-57
2024/03/02 12:05:55;;;;;;;11.27;7.47;;;12.40;99.90;;;;;;4941858;28;20421;-56
2024/03/02 12:08:21;;;;;;;10.65;7.60;;;12.50;99.90;;;;;;4982702;28;20418;-54
2024/03/02 12:11:01;;;;;;;12.73;7.85;;;12.50;99.90;;;;;;4929465;28;20033;-53
2024/03/02 12:13:27;;;;;;;9.45;6.57;;;12.50;99.90;;;;;;4930897;28;20117;-60
2024/03/02 12:15:57;;;;;;;11.25;7.38;;;12.50;99.90;;;;;;4943150;28;20668;-51
2024/03/02 12:18:23;;;;;;;11.68;7.72;;;12.50;99.90;;;;;;4941301;28;20141;-52
2024/03/02 12:20:56;;;;;;;11.77;7.95;;;12.50;99.90;;;;;;4928304;28;20104;-57
2024/03/02 12:23:22;;;;;;;10.23;7.93;;;12.50;99.90;;;;;;4979424;28;20674;-56
2024/03/02 12:25:47;;;;;;;11.95;7.78;;;12.50;99.90;;;;;;4948991;28;20026;-55
2024/03/02 12:28:13;;;;;;;12.25;7.90;;;12.50;99.90;;;;;;4910703;28;20034;-52
2024/03/02 12:30:39;;;;;;;9.77;7.20;;;12.50;99.90;;;;;;4913346;28;20037;-58
2024/03/02 12:33:05;;;;;;;10.45;6.47;;;12.60;99.90;;;;;;4941692;28;20969;-55
2024/03/02 12:35:31;;;;;;;13.18;8.55;;;12.60;99.90;;;;;;4956875;28;20032;-55
2024/03/02 12:37:58;;;;;;;9.20;6.80;;;12.60;99.90;;;;;;4907035;28;20022;-53